Time;durP1;ratioP1;P1;durP2;ratioP2;P2;SDS_P1;SDS_P2;PMS_P1;PMS_P2;Temp;Humidity;BMP_temperature;BMP_pressure;BME280_temperature;BME280_humidity;BME280_pressure;Samples;Min_cycle;Max_cycle;Signal;HPM_P1;HPM_P2
2022/09/15 00:01:45;;;;;;;31.40;15.85;;;;;;;10.81;100.00;100546.47;6128049;23;20029;-81
2022/09/15 00:07:14;;;;;;;29.10;16.85;;;;;;;12.00;100.00;100726.13;6128466;23;20021;-81
2022/09/15 00:09:40;;;;;;;31.00;17.17;;;;;;;11.60;100.00;100659.03;6127647;23;20006;-80
2022/09/15 00:12:05;;;;;;;31.33;16.85;;;;;;;11.15;100.00;100563.06;6127647;23;20001;-81
2022/09/15 00:14:36;;;;;;;31.70;17.35;;;;;;;11.24;100.00;100566.75;6127810;23;20010;-78
2022/09/15 00:17:05;;;;;;;;;;;;;;;12.23;100.00;100709.78;6127918;23;20002;-79
2022/09/15 00:19:45;;;;;;;33.20;17.85;;;;;;;11.37;100.00;100562.38;6127370;23;20324;-80
2022/09/15 00:22:11;;;;;;;29.73;18.15;;;;;;;11.97;100.00;100646.09;6127991;23;20337;-81
2022/09/15 00:24:36;;;;;;;32.33;18.65;;;;;;;11.28;100.00;100515.66;6127677;23;20010;-80
2022/09/15 00:27:02;;;;;;;31.45;18.58;;;;;;;12.49;100.00;100704.50;6127499;23;20104;-81
2022/09/15 00:29:27;;;;;;;32.05;18.83;;;;;;;12.52;100.00;100705.09;6126170;23;20073;-78
2022/09/15 00:31:53;;;;;;;30.60;18.83;;;;;;;12.54;100.00;100704.97;6128022;23;20012;-82
2022/09/15 00:34:18;;;;;;;32.80;18.45;;;;;;;12.61;100.00;100703.59;6127322;23;20009;-78
2022/09/15 00:36:43;;;;;;;31.55;18.80;;;;;;;12.62;100.00;100698.28;6127895;23;20032;-82
2022/09/15 00:39:09;;;;;;;30.48;17.90;;;;;;;12.63;100.00;100688.75;6127420;23;20012;-81
2022/09/15 00:41:34;;;;;;;29.17;18.38;;;;;;;12.64;100.00;100701.59;6127461;23;20077;-78
2022/09/15 00:44:15;;;;;;;31.10;16.92;;;;;;;12.70;100.00;100699.50;6127804;23;20408;-81
2022/09/15 00:46:43;;;;;;;32.42;18.38;;;;;;;12.63;100.00;100686.16;6127238;23;20036;-81
2022/09/15 00:49:17;;;;;;;29.60;17.38;;;;;;;12.76;100.00;100704.22;6127415;23;20009;-81
2022/09/15 00:51:53;;;;;;;30.38;17.55;;;;;;;12.65;100.00;100686.88;6127414;23;20001;-81
2022/09/15 00:54:26;;;;;;;29.65;18.13;;;;;;;12.66;100.00;100685.09;6127323;23;20332;-78
2022/09/15 00:56:54;;;;;;;32.22;17.85;;;;;;;12.84;100.00;100718.25;6127614;23;20049;-81
2022/09/15 00:59:24;;;;;;;26.05;17.52;;;;;;;12.85;100.00;100713.91;6127547;23;20356;-79
2022/09/15 01:02:00;;;;;;;29.92;18.10;;;;;;;12.92;100.00;100725.47;6127529;23;20006;-81
2022/09/15 01:04:26;;;;;;;28.20;17.88;;;;;;;12.89;100.00;100718.75;6126954;23;20006;-81
2022/09/15 01:06:57;;;;;;;29.98;17.40;;;;;;;12.88;100.00;100722.28;6126842;23;20014;-78
2022/09/15 01:09:29;;;;;;;33.42;17.65;;;;;;;12.96;100.00;100720.88;6127096;23;20077;-80
2022/09/15 01:11:54;;;;;;;26.63;17.38;;;;;;;12.96;100.00;100723.47;6127351;23;20006;-81
2022/09/15 01:14:20;;;;;;;25.92;17.52;;;;;;;13.00;100.00;100725.72;6127554;23;20302;-82
2022/09/15 01:16:57;;;;;;;26.63;17.10;;;;;;;13.02;100.00;100730.78;6127184;23;20006;-80
2022/09/15 01:19:58;;;;;;;29.48;16.60;;;;;;;13.02;100.00;100721.25;6127116;23;20034;-81
2022/09/15 01:22:48;;;;;;;31.38;16.52;;;;;;;13.04;100.00;100721.97;6127064;23;20021;-81
2022/09/15 01:25:43;;;;;;;29.52;16.98;;;;;;;13.02;100.00;100712.66;6127162;23;20393;-81
2022/09/15 01:28:29;;;;;;;30.50;17.08;;;;;;;13.08;100.00;100709.59;6127153;23;20010;-78
2022/09/15 01:31:20;;;;;;;27.60;17.00;;;;;;;13.11;100.00;100717.16;6127098;23;20375;-76
2022/09/15 01:34:01;;;;;;;25.85;16.75;;;;;;;13.09;100.00;100708.66;6127133;23;20002;-77
2022/09/15 01:36:36;;;;;;;27.58;17.15;;;;;;;12.98;100.00;100696.50;6126942;23;20527;-80
2022/09/15 01:39:14;;;;;;;30.80;16.58;;;;;;;13.01;100.00;100701.47;6127233;23;20077;-81
2022/09/15 01:41:46;;;;;;;25.80;16.15;;;;;;;13.00;100.00;100707.59;6126642;23;20310;-81
2022/09/15 01:44:21;;;;;;;26.63;16.33;;;;;;;12.96;100.00;100705.31;6126521;23;20002;-77
2022/09/15 01:46:51;;;;;;;27.00;16.92;;;;;;;12.87;100.00;100704.25;6126480;23;20012;-80
2022/09/15 01:49:24;;;;;;;24.75;15.20;;;;;;;12.69;100.00;100687.50;6126829;23;20010;-80
2022/09/15 01:51:52;;;;;;;25.38;16.13;;;;;;;12.42;100.00;100654.09;6126807;23;20425;-81
2022/09/15 01:54:31;;;;;;;26.35;16.00;;;;;;;12.66;100.00;100700.66;6127040;23;20009;-80
2022/09/15 01:56:57;;;;;;;26.50;17.02;;;;;;;12.59;100.00;100700.28;6126604;23;20017;-80
2022/09/15 01:59:23;;;;;;;23.67;14.95;;;;;;;12.57;100.00;100697.78;6127027;23;20010;-80
2022/09/15 02:02:03;;;;;;;25.95;16.02;;;;;;;12.49;100.00;100701.91;6126743;23;20361;-80
2022/09/15 02:04:37;;;;;;;24.20;14.93;;;;;;;12.41;100.00;100705.03;6126784;23;20010;-81
2022/09/15 02:07:19;;;;;;;25.48;15.38;;;;;;;12.37;100.00;100701.00;6126768;23;20017;-80
2022/09/15 02:10:00;;;;;;;23.48;14.82;;;;;;;12.14;100.00;100671.59;6099205;23;20397;-80
2022/09/15 02:12:38;;;;;;;27.90;15.55;;;;;;;12.27;100.00;100685.31;6126580;23;20006;-81
2022/09/15 02:15:09;;;;;;;26.95;15.52;;;;;;;12.32;100.00;100703.13;6126880;23;20009;-79
2022/09/15 02:17:44;;;;;;;25.45;17.13;;;;;;;12.30;100.00;100702.41;6126741;23;20012;-78
2022/09/15 02:20:19;;;;;;;22.63;15.43;;;;;;;12.22;100.00;100705.53;6126583;23;20006;-78
2022/09/15 02:22:51;;;;;;;22.50;15.20;;;;;;;12.17;100.00;100707.63;6099869;23;20026;-78
2022/09/15 02:25:23;;;;;;;22.38;14.27;;;;;;;12.09;100.00;100704.75;6126611;23;20065;-78
2022/09/15 02:27:53;;;;;;;23.40;14.13;;;;;;;12.03;100.00;100707.78;6126538;23;20089;-78
2022/09/15 02:30:20;;;;;;;19.77;14.40;;;;;;;11.85;100.00;100694.38;6126687;23;20037;-78
2022/09/15 02:32:55;;;;;;;23.73;14.20;;;;;;;11.64;100.00;100665.66;6126736;23;20006;-79
2022/09/15 02:35:24;;;;;;;25.02;14.88;;;;;;;11.85;100.00;100709.91;6126538;23;20069;-78
2022/09/15 02:37:51;;;;;;;23.35;15.10;;;;;;;11.82;100.00;100704.13;6126701;23;20002;-81
2022/09/15 02:40:16;;;;;;;20.13;13.90;;;;;;;11.55;100.00;100668.88;6126149;23;20010;-78
2022/09/15 02:42:52;;;;;;;20.60;13.65;;;;;;;11.59;100.00;100690.97;6126531;23;20006;-78
2022/09/15 02:45:18;;;;;;;19.65;12.68;;;;;;;11.60;100.00;100702.16;6101231;23;20002;-78
2022/09/15 02:47:44;;;;;;;20.30;13.00;;;;;;;11.58;100.00;100707.44;6126640;23;20080;-79
2022/09/15 02:50:10;;;;;;;21.95;13.90;;;;;;;11.53;100.00;100706.94;6126131;23;20030;-79
2022/09/15 02:52:36;;;;;;;21.98;14.10;;;;;;;11.40;100.00;100681.09;6125907;23;20413;-80
2022/09/15 02:55:01;;;;;;;23.10;15.60;;;;;;;11.62;100.00;100711.50;6126507;23;20030;-78
2022/09/15 02:57:27;;;;;;;22.77;14.52;;;;;;;11.54;100.00;100687.09;6126272;23;20321;-78
2022/09/15 03:02:36;;;;;;;23.63;15.40;;;;;;;11.51;100.00;100684.72;6126383;23;20017;-77
2022/09/15 03:05:01;;;;;;;23.63;15.20;;;;;;;11.59;100.00;100678.06;6126101;23;20018;-81
2022/09/15 03:07:27;;;;;;;22.58;15.05;;;;;;;11.72;100.00;100689.22;6126242;23;20331;-76
2022/09/15 03:09:52;;;;;;;26.88;16.20;;;;;;;11.82;100.00;100704.97;6126419;23;20339;-77
2022/09/15 03:12:18;;;;;;;32.22;17.00;;;;;;;11.88;100.00;100706.28;6126579;23;20324;-77
2022/09/15 03:14:43;;;;;;;29.00;17.40;;;;;;;11.95;100.00;100712.69;6126389;23;20006;-77
2022/09/15 03:17:08;;;;;;;24.92;16.40;;;;;;;11.94;100.00;100705.84;6126335;23;20006;-80
2022/09/15 03:19:34;;;;;;;26.58;16.38;;;;;;;12.06;100.00;100720.50;6126125;23;20354;-79
2022/09/15 03:21:59;;;;;;;28.00;18.27;;;;;;;12.15;100.00;100724.22;6125712;23;20416;-77
2022/09/15 03:24:24;;;;;;;26.83;18.17;;;;;;;12.13;100.00;100720.91;6126125;23;20002;-77
2022/09/15 03:26:50;;;;;;;34.25;18.73;;;;;;;12.25;100.00;100730.38;6126201;23;20006;-78
2022/09/15 03:29:15;;;;;;;29.23;18.45;;;;;;;12.30;100.00;100734.31;6126427;23;20002;-78
2022/09/15 03:31:41;;;;;;;29.80;18.33;;;;;;;12.34;100.00;100738.31;6126178;23;20002;-77
2022/09/15 03:34:06;;;;;;;28.65;17.45;;;;;;;12.36;100.00;100743.38;6126083;23;20068;-77
2022/09/15 03:36:32;;;;;;;28.48;17.88;;;;;;;12.23;100.00;100714.97;6125697;23;20088;-78
2022/09/15 03:38:58;;;;;;;30.63;18.65;;;;;;;12.42;100.00;100737.78;6126190;23;20006;-78
2022/09/15 03:41:24;;;;;;;26.80;17.48;;;;;;;12.47;100.00;100751.19;6126337;23;20002;-79
2022/09/15 03:43:51;;;;;;;27.05;18.13;;;;;;;12.50;100.00;100750.19;6124517;23;20057;-78
2022/09/15 03:46:18;;;;;;;28.92;18.75;;;;;;;12.45;100.00;100739.31;6125785;23;20014;-81
2022/09/15 03:48:44;;;;;;;27.45;19.10;;;;;;;12.54;100.00;100746.41;6126060;23;20010;-79
2022/09/15 03:51:10;;;;;;;28.73;18.63;;;;;;;12.50;100.00;100742.41;6125572;23;20316;-79
2022/09/15 03:53:39;;;;;;;26.73;17.42;;;;;;;12.56;100.00;100753.13;6125954;23;20002;-81
2022/09/15 03:56:18;;;;;;;29.52;18.02;;;;;;;12.60;100.00;100753.75;6126421;23;20081;-78
2022/09/15 03:58:43;;;;;;;30.80;18.15;;;;;;;12.44;100.00;100729.88;6125782;23;20077;-78
2022/09/15 04:01:09;;;;;;;29.27;19.35;;;;;;;12.60;100.00;100745.97;6126081;23;20006;-78
2022/09/15 04:03:34;;;;;;;26.83;17.80;;;;;;;12.32;100.00;100703.94;6125523;23;19998;-79
2022/09/15 04:06:00;;;;;;;24.75;17.88;;;;;;;12.35;100.00;100706.31;6127397;23;20084;-78
2022/09/15 04:08:25;;;;;;;25.23;17.77;;;;;;;12.54;100.00;100742.06;6127689;23;20005;-77
2022/09/15 04:10:50;;;;;;;28.20;18.25;;;;;;;12.53;100.00;100735.22;6127703;23;20048;-81
2022/09/15 04:13:16;;;;;;;27.40;17.98;;;;;;;12.53;100.00;100739.59;6128048;23;20010;-81
2022/09/15 04:15:42;;;;;;;28.33;18.50;;;;;;;12.55;100.00;100740.28;6102015;23;20006;-80
2022/09/15 04:18:07;;;;;;;26.50;17.67;;;;;;;12.55;100.00;100735.13;6127817;23;20001;-80
2022/09/15 04:20:32;;;;;;;29.02;19.33;;;;;;;11.77;100.00;100606.94;6127428;23;20014;-77
2022/09/15 04:22:58;;;;;;;26.65;18.83;;;;;;;12.56;100.00;100732.41;6101088;23;20060;-81
2022/09/15 04:25:26;;;;;;;26.35;18.67;;;;;;;12.58;100.00;100737.47;6127874;23;20005;-81
2022/09/15 04:27:51;;;;;;;25.77;17.77;;;;;;;12.56;100.00;100727.22;6127911;23;20038;-82
2022/09/15 04:30:17;;;;;;;27.00;17.50;;;;;;;12.58;100.00;100730.53;6127627;23;20010;-82
2022/09/15 04:32:42;;;;;;;25.75;17.88;;;;;;;12.61;100.00;100734.69;6127660;23;20010;-81
2022/09/15 04:35:08;;;;;;;28.20;18.85;;;;;;;12.37;100.00;100706.19;6127576;23;20041;-81
2022/09/15 04:37:33;;;;;;;23.67;17.08;;;;;;;12.54;100.00;100723.09;6127524;23;20054;-81
2022/09/15 04:40:00;;;;;;;25.55;17.48;;;;;;;12.60;100.00;100741.63;6127397;23;20012;-81
2022/09/15 04:42:25;;;;;;;25.35;17.15;;;;;;;12.52;100.00;100722.41;6127996;23;20006;-82
2022/09/15 04:44:51;;;;;;;27.35;17.75;;;;;;;12.59;100.00;100733.97;6127523;23;20442;-81
2022/09/15 04:47:16;;;;;;;26.05;18.17;;;;;;;12.46;100.00;100709.88;6127029;23;20021;-81
2022/09/15 04:49:42;;;;;;;25.13;17.35;;;;;;;12.58;100.00;100734.88;6127754;23;20002;-81
2022/09/15 04:52:07;;;;;;;28.23;17.45;;;;;;;12.45;100.00;100724.59;6100981;23;20009;-81
2022/09/15 04:54:33;;;;;;;22.98;17.83;;;;;;;12.52;100.00;100735.34;6127705;23;20431;-82
2022/09/15 04:56:59;;;;;;;28.80;19.48;;;;;;;12.44;100.00;100735.06;6127343;23;20010;-81
2022/09/15 04:59:24;;;;;;;27.00;18.33;;;;;;;12.38;100.00;100738.91;6127314;23;20021;-81
2022/09/15 05:01:55;;;;;;;29.58;18.00;;;;;;;12.18;100.00;100714.44;6127513;23;20061;-81
2022/09/15 05:04:21;;;;;;;;;;;;;;;12.28;100.00;100740.50;6127610;23;20006;-80
2022/09/15 05:06:46;;;;;;;26.58;18.05;;;;;;;12.01;100.00;100712.25;6127366;23;20004;-80
2022/09/15 05:09:12;;;;;;;24.75;17.88;;;;;;;12.11;100.00;100736.56;6127396;23;20488;-76
2022/09/15 05:11:38;;;;;;;26.75;17.77;;;;;;;12.01;100.00;100728.63;6127148;23;20029;-78
2022/09/15 05:14:04;;;;;;;25.38;17.65;;;;;;;11.86;100.00;100706.38;6127334;23;20006;-81
2022/09/15 05:16:30;;;;;;;25.80;18.35;;;;;;;11.85;100.00;100709.09;6126509;23;20002;-81
2022/09/15 05:18:57;;;;;;;26.50;18.20;;;;;;;12.06;100.00;100736.03;6126747;23;20006;-82
2022/09/15 05:21:23;;;;;;;30.23;20.17;;;;;;;12.01;100.00;100722.59;6126676;23;20384;-81
2022/09/15 05:23:50;;;;;;;29.33;19.52;;;;;;;11.95;100.00;100710.09;6127017;23;20010;-81
2022/09/15 05:26:19;;;;;;;33.78;19.50;;;;;;;12.12;100.00;100738.19;6126657;23;20448;-80
2022/09/15 05:28:45;;;;;;;26.75;17.75;;;;;;;12.19;100.00;100748.94;6126695;23;20085;-80
2022/09/15 05:31:13;;;;;;;27.38;18.80;;;;;;;12.19;100.00;100743.75;6126703;23;20045;-81
2022/09/15 05:33:39;;;;;;;26.67;18.67;;;;;;;12.09;100.00;100720.28;6127002;23;20060;-81
2022/09/15 05:36:06;;;;;;;26.63;17.80;;;;;;;12.22;100.00;100741.78;6127213;23;20037;-82
2022/09/15 05:38:34;;;;;;;29.75;19.73;;;;;;;12.26;100.00;100752.75;6126689;23;20016;-81
2022/09/15 05:41:04;;;;;;;27.90;20.08;;;;;;;12.32;100.00;100752.31;6126903;23;20006;-80
2022/09/15 05:43:31;;;;;;;30.17;19.92;;;;;;;12.18;100.00;100729.16;6126795;23;20006;-81
2022/09/15 05:45:57;;;;;;;27.02;19.70;;;;;;;12.39;100.00;100755.28;6126549;23;20085;-81
2022/09/15 05:48:23;;;;;;;28.60;19.42;;;;;;;12.41;100.00;100746.47;6126637;23;20022;-81
2022/09/15 05:50:51;;;;;;;27.08;19.20;;;;;;;12.35;100.00;100732.19;6127086;23;20001;-81
2022/09/15 05:53:16;;;;;;;25.70;19.48;;;;;;;12.52;100.00;100748.28;6126828;23;20080;-80
2022/09/15 05:55:42;;;;;;;34.00;21.10;;;;;;;12.48;100.00;100742.50;6126608;23;20064;-80
2022/09/15 05:58:08;;;;;;;31.20;19.88;;;;;;;12.71;100.00;100769.34;6100246;23;20036;-81
2022/09/15 06:00:34;;;;;;;31.30;20.10;;;;;;;12.78;100.00;100770.56;6126716;23;20002;-81
2022/09/15 06:02:59;;;;;;;26.48;19.50;;;;;;;12.86;100.00;100770.78;6126990;23;20010;-81
2022/09/15 06:05:25;;;;;;;28.83;19.05;;;;;;;12.91;100.00;100773.06;6126841;23;20065;-81
2022/09/15 06:07:54;;;;;;;29.27;19.60;;;;;;;12.97;100.00;100770.00;6126831;23;20002;-82
2022/09/15 06:10:23;;;;;;;25.25;18.30;;;;;;;12.02;100.00;100610.38;6127279;23;20022;-78
2022/09/15 06:12:52;;;;;;;25.55;18.35;;;;;;;13.18;100.00;100783.16;6126975;23;20076;-78
2022/09/15 06:15:18;;;;;;;23.98;17.63;;;;;;;13.23;100.00;100780.25;6127031;23;20005;-81
2022/09/15 06:17:43;;;;;;;26.33;18.08;;;;;;;13.06;100.00;100755.53;6126682;23;20002;-81
2022/09/15 06:20:09;;;;;;;26.33;17.38;;;;;;;13.16;100.00;100769.47;6125671;23;20013;-78
2022/09/15 06:22:34;;;;;;;24.50;16.95;;;;;;;13.25;100.00;100778.38;6126946;23;20005;-79
2022/09/15 06:24:59;;;;;;;24.02;17.15;;;;;;;13.14;100.00;100755.81;6125804;23;20033;-79
2022/09/15 06:27:25;;;;;;;31.17;17.42;;;;;;;13.31;100.00;100786.53;6100618;23;20009;-79
2022/09/15 06:29:50;;;;;;;26.13;17.48;;;;;;;13.38;100.00;100789.50;6126590;23;20012;-78
2022/09/15 06:32:16;;;;;;;25.17;16.50;;;;;;;13.47;100.00;100791.38;6126454;23;20010;-77
2022/09/15 06:34:41;;;;;;;24.67;15.82;;;;;;;13.57;100.00;100800.13;6126635;23;20016;-79
2022/09/15 06:37:07;;;;;;;26.38;16.58;;;;;;;13.68;100.00;100807.09;6126513;23;20029;-79
2022/09/15 06:39:34;;;;;;;24.60;16.55;;;;;;;13.78;100.00;100806.28;6125817;23;20324;-79
2022/09/15 06:42:00;;;;;;;25.95;15.65;;;;;;;13.86;100.00;100803.06;6126633;23;20009;-80
2022/09/15 06:44:26;;;;;;;22.85;15.15;;;;;;;13.95;100.00;100804.94;6126300;23;20006;-79
2022/09/15 06:46:51;;;;;;;20.40;14.90;;;;;;;13.84;100.00;100771.22;6126183;23;20010;-80
2022/09/15 06:49:16;;;;;;;22.05;15.35;;;;;;;14.09;100.00;100805.66;6126429;23;20455;-79
2022/09/15 06:51:42;;;;;;;20.48;14.55;;;;;;;14.20;100.00;100813.44;6126071;23;20069;-80
2022/09/15 06:54:07;;;;;;;22.48;14.40;;;;;;;14.24;100.00;100797.50;6126628;23;20012;-81
2022/09/15 06:56:32;;;;;;;19.90;13.45;;;;;;;14.15;100.00;100766.22;6099530;23;20010;-80
2022/09/15 06:58:58;;;;;;;21.10;13.32;;;;;;;14.60;100.00;100801.56;6126362;23;20085;-79
2022/09/15 07:01:27;;;;;;;16.30;12.45;;;;;;;14.90;100.00;100826.88;6126234;23;20444;-80
2022/09/15 07:03:54;;;;;;;19.55;12.38;;;;;;;14.85;100.00;100791.81;6100235;23;20051;-80
2022/09/15 07:06:19;;;;;;;15.45;11.30;;;;;;;15.08;100.00;100828.94;6126031;23;20013;-77
2022/09/15 07:08:45;;;;;;;18.05;11.88;;;;;;;14.95;100.00;100800.50;6126120;23;20002;-86
2022/09/15 07:11:11;;;;;;;18.83;11.85;;;;;;;15.16;100.00;100835.16;6126105;23;20014;-82
2022/09/15 07:13:39;;;;;;;17.48;11.20;;;;;;;15.29;100.00;100828.94;6126240;23;20006;-80
2022/09/15 07:16:10;;;;;;;16.52;11.05;;;;;;;15.34;100.00;100832.81;6126023;23;20434;-79
2022/09/15 07:19:04;;;;;;;13.90;9.38;;;;;;;15.39;99.54;100832.41;6124635;23;20014;-80
2022/09/15 07:25:05;;;;;;;11.23;8.40;;;;;;;14.92;98.63;100777.34;5979983;24;20359;-82
2022/09/15 07:27:55;;;;;;;13.38;8.70;;;;;;;15.26;99.82;100834.41;5979611;24;20012;-78
2022/09/15 07:30:33;;;;;;;15.32;9.32;;;;;;;14.69;100.00;100744.59;5980489;24;20109;-84
2022/09/15 07:33:13;;;;;;;15.57;9.10;;;;;;;14.91;100.00;100771.31;5981472;24;20033;-89
2022/09/15 07:35:42;;;;;;;13.48;8.85;;;;;;;14.81;99.84;100746.19;5980508;24;20016;-88
2022/09/15 07:38:48;;;;;;;14.63;9.15;;;;;;;15.59;99.90;100848.97;5981709;24;20091;-89
2022/09/15 07:41:29;;;;;;;15.07;9.32;;;;;;;14.76;99.11;100691.19;5982280;24;20025;-87
2022/09/15 07:44:04;;;;;;;15.40;9.35;;;;;;;15.53;97.15;100798.25;5982514;24;20014;-84
2022/09/15 07:46:30;;;;;;;14.65;8.48;;;;;;;14.92;96.00;100692.34;5980625;24;20012;-84
2022/09/15 07:48:56;;;;;;;12.70;8.95;;;;;;;15.91;96.35;100862.75;5980681;24;20443;-82
2022/09/15 07:51:22;;;;;;;14.20;8.15;;;;;;;15.15;94.83;100747.66;5980941;24;20004;-82
2022/09/15 07:53:51;;;;;;;15.25;9.15;;;;;;;15.72;95.83;100844.41;5980824;24;20056;-80
2022/09/15 07:56:21;;;;;;;13.77;8.35;;;;;;;15.34;95.27;100790.34;5980346;24;20012;-80
2022/09/15 07:58:51;;;;;;;17.77;9.30;;;;;;;15.50;96.33;100807.16;5980713;24;20426;-80
2022/09/15 08:01:22;;;;;;;17.03;9.50;;;;;;;15.47;96.16;100798.78;6055294;23;20084;-81
2022/09/15 08:03:50;;;;;;;18.05;9.13;;;;;;;15.84;94.76;100855.59;6126184;23;20006;-81
2022/09/15 08:06:18;;;;;;;15.35;9.15;;;;;;;15.86;96.21;100861.50;6127918;23;20443;-81
2022/09/15 08:08:45;;;;;;;15.00;8.73;;;;;;;15.92;95.25;100853.97;6127684;23;20006;-81
2022/09/15 08:11:25;;;;;;;15.15;8.32;;;;;;;16.21;95.41;100876.72;6127307;23;20010;-80
2022/09/15 08:13:53;;;;;;;13.93;8.15;;;;;;;16.42;93.69;100879.25;6127744;23;20013;-81
2022/09/15 08:16:27;;;;;;;13.00;7.15;;;;;;;15.81;92.28;100775.13;6127770;23;20017;-81
2022/09/15 08:19:14;;;;;;;12.40;7.65;;;;;;;16.60;93.94;100875.03;6128096;23;20006;-82
2022/09/15 08:21:39;;;;;;;13.32;7.38;;;;;;;16.48;92.25;100865.69;6127646;23;20080;-82
2022/09/15 08:24:17;;;;;;;14.90;7.80;;;;;;;16.59;92.75;100881.22;6128066;23;20118;-82
2022/09/15 08:26:45;;;;;;;14.95;6.68;;;;;;;16.08;89.87;100808.38;6131245;23;20024;-82
2022/09/15 08:29:12;;;;;;;12.25;6.75;;;;;;;15.42;88.20;100709.84;6127842;23;20052;-82
2022/09/15 08:31:47;;;;;;;12.18;6.60;;;;;;;15.55;89.63;100718.28;6127493;23;20421;-82
2022/09/15 08:34:33;;;;;;;13.32;7.65;;;;;;;16.69;91.41;100889.91;6127937;23;20005;-81
2022/09/15 08:37:10;;;;;;;14.48;7.70;;;;;;;16.13;91.83;100788.81;6128093;23;20077;-85
2022/09/15 08:39:36;;;;;;;12.88;8.13;;;;;;;16.88;91.69;100892.56;6127540;23;20001;-82
2022/09/15 08:42:02;;;;;;;11.43;7.70;;;;;;;16.87;89.65;100888.28;6127409;23;20006;-82
2022/09/15 08:44:33;;;;;;;12.05;7.68;;;;;;;17.05;88.30;100900.69;6127508;23;20009;-83
2022/09/15 08:47:11;;;;;;;16.52;8.20;;;;;;;17.14;87.55;100892.03;6127502;23;20024;-82
2022/09/15 08:50:16;;;;;;;13.38;8.48;;;;;;;17.24;89.13;100902.47;6127686;23;20010;-82
2022/09/15 08:52:49;;;;;;;14.68;8.70;;;;;;;17.32;88.86;100907.81;5872142;24;20010;-82
2022/09/15 08:55:35;;;;;;;16.13;8.75;;;;;;;17.39;89.40;100903.69;5873652;24;20438;-84
2022/09/15 08:58:00;;;;;;;11.70;7.70;;;;;;;17.64;85.56;100908.34;5872043;24;20014;-81
2022/09/15 09:00:32;;;;;;;14.52;7.13;;;;;;;17.45;84.08;100863.97;5871337;24;20051;-83
2022/09/15 09:03:35;;;;;;;11.27;6.68;;;;;;;17.61;85.57;100918.25;5871593;24;20154;-83
2022/09/15 09:06:12;;;;;;;15.75;7.38;;;;;;;17.35;86.18;100924.03;5849315;24;20028;-82
2022/09/15 09:09:02;;;;;;;14.70;8.63;;;;;;;17.18;87.56;100935.97;5870466;24;20037;-80
2022/09/15 09:11:57;;;;;;;12.57;7.47;;;;;;;16.98;87.48;100930.88;5871641;24;20009;-79
2022/09/15 09:15:05;;;;;;;10.35;6.00;;;;;;;16.65;86.02;100911.97;5871517;24;20549;-81
2022/09/15 09:17:33;;;;;;;10.98;7.00;;;;;;;16.74;88.19;100939.06;5801270;24;20389;-82
2022/09/15 09:20:23;;;;;;;11.02;6.28;;;;;;;16.72;86.37;100939.22;5818140;24;20018;-82
2022/09/15 09:22:52;;;;;;;13.23;6.65;;;;;;;16.41;86.09;100894.06;5817914;24;20095;-82
2022/09/15 09:25:19;;;;;;;8.70;5.22;;;;;;;16.17;84.62;100867.53;5818093;24;20088;-83
2022/09/15 09:27:46;;;;;;;11.13;6.18;;;;;;;16.53;86.51;100939.13;5817565;24;20550;-80
2022/09/15 09:30:20;;;;;;;12.65;5.20;;;;;;;16.22;85.93;100901.81;5955550;23;20007;-80
2022/09/15 09:33:23;;;;;;;13.32;5.63;;;;;;;16.45;85.79;100941.56;6009363;23;20004;-82
2022/09/15 09:35:53;;;;;;;10.57;5.68;;;;;;;16.23;86.54;100929.53;6009197;23;20015;-81
2022/09/15 09:38:21;;;;;;;14.48;5.75;;;;;;;16.06;86.93;100923.97;6009641;23;20513;-84
2022/09/15 09:40:48;;;;;;;9.57;5.35;;;;;;;16.18;86.87;100949.94;6009383;23;20008;-77
2022/09/15 09:43:14;;;;;;;14.02;5.38;;;;;;;16.11;88.84;100946.19;6009255;23;20004;-82
2022/09/15 09:45:39;;;;;;;10.88;5.13;;;;;;;16.08;88.68;100944.69;6009274;23;20019;-87
2022/09/15 09:48:16;;;;;;;10.43;5.22;;;;;;;16.05;89.43;100942.34;6009386;23;20018;-82
2022/09/15 09:50:43;;;;;;;10.57;5.07;;;;;;;15.77;89.90;100925.59;5985775;23;20008;-80
2022/09/15 09:53:24;;;;;;;12.02;5.35;;;;;;;15.91;91.02;100958.28;6031480;23;20016;-77
2022/09/15 09:55:52;;;;;;;12.00;5.10;;;;;;;15.86;91.64;100956.06;6127064;23;20328;-80
2022/09/15 09:58:19;;;;;;;9.88;4.22;;;;;;;15.74;90.43;100929.28;6126549;23;20438;-79
2022/09/15 10:00:45;;;;;;;9.15;4.60;;;;;;;16.02;92.39;100945.19;6126829;23;20009;-79
2022/09/15 10:03:21;;;;;;;9.75;4.10;;;;;;;16.35;89.05;100949.34;6126543;23;20438;-75
2022/09/15 10:06:05;;;;;;;7.32;3.67;;;;;;;16.64;89.29;100939.00;6127111;23;20006;-76
2022/09/15 10:08:30;;;;;;;11.50;3.95;;;;;;;16.84;85.88;100925.09;6126620;23;20033;-75
2022/09/15 10:11:03;;;;;;;9.43;2.88;;;;;;;17.00;85.03;100926.34;6126623;23;20425;-75
2022/09/15 10:13:28;;;;;;;10.13;3.80;;;;;;;17.23;84.36;100951.22;6126480;23;20002;-75
2022/09/15 10:15:58;;;;;;;7.20;3.30;;;;;;;17.39;85.51;100941.06;6100615;23;20053;-75
2022/09/15 10:18:36;;;;;;;11.13;4.10;;;;;;;17.67;86.29;100941.16;6126721;23;20006;-74
2022/09/15 10:21:04;;;;;;;8.20;4.28;;;;;;;17.86;84.18;100940.34;6126828;23;20005;-75
2022/09/15 10:23:32;;;;;;;10.32;4.72;;;;;;;18.06;81.76;100944.56;6126386;23;20053;-77
2022/09/15 10:26:28;;;;;;;10.23;4.05;;;;;;;18.28;84.66;100943.38;6126660;23;20033;-76
2022/09/15 10:29:14;;;;;;;8.45;3.80;;;;;;;18.20;81.62;100945.91;6126421;23;20006;-75
2022/09/15 10:31:40;;;;;;;9.90;3.97;;;;;;;17.83;80.48;100938.03;6126694;23;20005;-76
2022/09/15 10:34:29;;;;;;;9.50;3.60;;;;;;;17.58;82.81;100950.66;6126521;23;20063;-76
2022/09/15 10:37:06;;;;;;;9.95;3.72;;;;;;;17.19;82.89;100960.28;6100324;23;20071;-76
2022/09/15 10:39:48;;;;;;;5.45;1.80;;;;;;;16.61;78.22;100973.16;6126506;23;20490;-75
2022/09/15 10:42:18;;;;;;;6.63;1.30;;;;;;;15.89;79.35;100962.78;6126164;23;20017;-74
2022/09/15 10:44:54;;;;;;;9.17;1.83;;;;;;;15.27;84.34;100960.94;6126483;23;20077;-76
2022/09/15 10:48:03;;;;;;;7.82;1.42;;;;;;;14.96;83.62;100981.59;6126531;23;20002;-77
2022/09/15 10:50:30;;;;;;;7.55;1.30;;;;;;;14.58;87.75;100975.00;6126355;23;20012;-77
2022/09/15 10:53:15;;;;;;;5.55;1.48;;;;;;;14.61;90.36;100976.53;6126390;23;20010;-76
2022/09/15 10:56:18;;;;;;;10.48;1.58;;;;;;;14.72;91.37;100973.09;6100568;23;20017;-77
2022/09/15 10:58:50;;;;;;;4.68;1.17;;;;;;;14.79;89.62;100964.69;6126364;23;20474;-76
2022/09/15 11:01:42;;;;;;;5.78;1.60;;;;;;;15.01;92.33;100965.59;6100326;23;20068;-77
2022/09/15 11:04:25;;;;;;;8.60;1.95;;;;;;;15.28;92.09;100957.38;6126580;23;20006;-77
2022/09/15 11:07:14;;;;;;;6.57;1.80;;;;;;;15.60;91.52;100963.41;6126404;23;20153;-77
2022/09/15 11:09:54;;;;;;;8.45;2.22;;;;;;;15.87;88.34;100944.69;6126203;23;20006;-77
2022/09/15 11:12:35;;;;;;;6.47;1.60;;;;;;;16.24;87.19;100962.47;6126343;23;20009;-76
2022/09/15 11:15:25;;;;;;;5.57;1.38;;;;;;;16.52;85.67;100956.53;6125975;23;20010;-82
2022/09/15 11:17:56;;;;;;;5.93;1.50;;;;;;;16.55;84.82;100898.91;6100267;23;20013;-79
2022/09/15 11:20:38;;;;;;;5.80;1.35;;;;;;;16.98;83.47;100930.88;6126114;23;20339;-77
2022/09/15 11:23:15;;;;;;;;;;;;;;;17.31;83.95;100948.78;6100891;23;20424;-77
2022/09/15 11:25:46;;;;;;;5.78;1.30;;;;;;;17.34;81.99;100929.38;6126196;23;19944;-79
2022/09/15 11:28:19;;;;;;;5.00;1.02;;;;;;;17.56;79.58;100943.94;6125928;23;20045;-75
2022/09/15 11:31:26;;;;;;;6.95;1.00;;;;;;;17.57;79.08;100909.03;6126026;23;20030;-77
2022/09/15 11:34:14;;;;;;;4.80;0.98;;;;;;;17.81;75.10;100938.19;5956918;24;20390;-76
2022/09/15 11:36:48;;;;;;;3.55;1.20;;;;;;;17.92;77.73;100937.19;5979004;24;20412;-76
2022/09/15 11:39:22;;;;;;;6.63;1.33;;;;;;;17.92;76.44;100935.41;5980505;24;20020;-77